Time;durP1;ratioP1;P1;durP2;ratioP2;P2;SDS_P1;SDS_P2;PMS_P1;PMS_P2;Temp;Humidity;BMP_temperature;BMP_pressure;BME280_temperature;BME280_humidity;BME280_pressure;Samples;Min_cycle;Max_cycle;Signal;HPM_P1;HPM_P2
2022/06/06 00:01:57;;;;;;;;;7.00;7.00;;;;;16.70;74.68;100887.38;4994626;27;46049;-73
2022/06/06 00:04:24;;;;;;;;;10.75;8.00;;;;;16.63;75.09;100876.28;4994336;28;45377;-71
2022/06/06 00:06:52;;;;;;;;;8.50;8.00;;;;;16.65;75.95;100885.00;4994347;27;45378;-71
2022/06/06 00:09:18;;;;;;;;;9.25;9.25;;;;;16.64;77.14;100892.13;4993273;28;45283;-71
2022/06/06 00:11:44;;;;;;;;;8.75;7.00;;;;;16.65;77.73;100895.63;4993719;28;46847;-71
2022/06/06 00:14:11;;;;;;;;;9.25;9.25;;;;;16.62;78.07;100885.19;4993917;28;45153;-72
2022/06/06 00:16:37;;;;;;;;;9.75;9.75;;;;;16.57;78.02;100882.81;4994674;28;45457;-71
2022/06/06 00:19:03;;;;;;;;;8.50;8.50;;;;;16.52;78.39;100886.69;4994694;28;45472;-71
2022/06/06 00:21:30;;;;;;;;;12.50;10.75;;;;;16.47;78.57;100879.88;4993604;28;45414;-72
2022/06/06 00:23:59;;;;;;;;;11.50;11.50;;;;;16.40;79.20;100881.19;4994314;28;45431;-72
2022/06/06 00:26:26;;;;;;;;;12.25;11.00;;;;;16.34;79.29;100871.78;4994838;27;45198;-72
2022/06/06 00:28:52;;;;;;;;;12.75;12.75;;;;;16.28;79.36;100874.78;4998856;27;45468;-73
2022/06/06 00:36:45;;;;;;;;;16.25;14.00;;;;;16.15;80.28;100872.03;4994736;28;45469;-70
2022/06/06 00:39:14;;;;;;;;;18.00;18.00;;;;;16.06;80.00;100857.50;4993870;27;45370;-71
2022/06/06 00:41:46;;;;;;;;;17.25;15.50;;;;;16.09;79.84;100871.53;4993859;27;46578;-69
2022/06/06 00:44:18;;;;;;;;;22.50;19.50;;;;;16.05;80.21;100870.88;4991969;28;45399;-70
2022/06/06 00:47:10;;;;;;;;;18.25;18.25;;;;;16.01;80.38;100856.91;4993879;28;45231;-73
2022/06/06 00:49:47;;;;;;;;;19.00;17.75;;;;;15.99;80.51;100864.09;4977725;27;45641;-71
2022/06/06 00:52:22;;;;;;;;;17.75;17.75;;;;;15.99;80.91;100858.81;4993368;28;46683;-70
2022/06/06 00:54:49;;;;;;;;;20.25;18.25;;;;;15.98;80.81;100853.59;4974717;28;45435;-69
2022/06/06 00:57:21;;;;;;;;;20.00;18.75;;;;;15.99;80.21;100844.69;4992244;28;45208;-70
2022/06/06 00:59:46;;;;;;;;;18.50;16.75;;;;;16.01;80.02;100850.75;4992232;28;45332;-71
2022/06/06 01:02:13;;;;;;;;;19.75;18.75;;;;;16.06;80.13;100854.00;4991919;27;46272;-71
2022/06/06 01:04:40;;;;;;;;;21.50;18.50;;;;;16.08;80.29;100846.81;4992309;28;45307;-71
2022/06/06 01:07:09;;;;;;;;;16.75;16.50;;;;;16.11;80.10;100851.94;4993638;28;45346;-71
2022/06/06 01:09:36;;;;;;;;;21.50;20.00;;;;;16.15;80.15;100853.47;4996274;27;45956;-70
2022/06/06 01:12:07;;;;;;;;;22.25;21.75;;;;;16.16;79.83;100841.91;4992914;28;46081;-72
2022/06/06 01:14:39;;;;;;;;;18.50;17.75;;;;;16.23;79.97;100850.31;4993639;28;45354;-72
2022/06/06 01:17:21;;;;;;;;;22.00;19.75;;;;;16.24;79.87;100845.88;4995382;28;45278;-71
2022/06/06 01:19:58;;;;;;;;;19.00;19.00;;;;;16.28;80.32;100842.94;4995152;28;45334;-70
2022/06/06 01:22:38;;;;;;;;;22.00;22.00;;;;;16.31;80.29;100839.25;4991625;28;45316;-70
2022/06/06 01:25:34;;;;;;;;;19.50;19.00;;;;;16.34;nan;100844.38;4991595;27;45318;-70
2022/06/06 01:28:39;;;;;;;;;18.50;16.25;;;;;16.35;80.03;100840.78;4991312;27;45340;-70
2022/06/06 01:31:19;;;;;;;;;21.00;18.75;;;;;16.35;79.50;100840.78;4991780;28;45459;-71
2022/06/06 01:34:05;;;;;;;;;22.00;21.25;;;;;16.37;80.02;100841.53;4992170;28;45664;-71
2022/06/06 01:36:33;;;;;;;;;24.00;21.50;;;;;16.38;80.04;100839.72;4991973;28;45504;-71
2022/06/06 01:39:03;;;;;;;;;19.75;17.75;;;;;16.36;79.91;100834.53;4991758;28;45356;-72
2022/06/06 01:41:47;;;;;;;;;17.75;15.75;;;;;16.38;79.85;100842.38;4993017;27;45337;-70
2022/06/06 01:44:20;;;;;;;;;18.25;16.75;;;;;16.40;79.60;100840.50;4993508;28;45323;-70
2022/06/06 01:46:47;;;;;;;;;13.75;13.75;;;;;16.41;78.72;100834.22;4994543;28;45257;-71
2022/06/06 01:49:15;;;;;;;;;13.00;9.00;;;;;16.44;78.38;100845.53;4994655;28;45347;-71
2022/06/06 01:51:41;;;;;;;;;12.50;11.25;;;;;16.43;78.30;100838.50;4994324;28;45445;-70
2022/06/06 01:54:06;;;;;;;;;11.75;11.75;;;;;16.45;78.39;100846.41;4994855;28;46118;-69
2022/06/06 01:56:35;;;;;;;;;11.25;11.25;;;;;16.45;78.16;100841.09;4996157;28;45404;-70
2022/06/06 01:59:00;;;;;;;;;8.75;8.75;;;;;16.46;77.69;100835.66;4995170;28;45257;-72
2022/06/06 02:01:26;;;;;;;;;8.25;8.25;;;;;16.46;77.35;100834.84;4996046;27;45551;-72
2022/06/06 02:03:52;;;;;;;;;6.75;6.75;;;;;16.40;75.92;100822.78;4997177;28;45350;-73
2022/06/06 02:06:18;;;;;;;;;8.50;7.00;;;;;16.46;75.83;100834.84;4999654;27;45282;-71
2022/06/06 02:08:44;;;;;;;;;8.25;8.25;;;;;16.43;76.07;100827.03;4997116;28;45217;-71
2022/06/06 02:11:11;;;;;;;;;7.00;7.00;;;;;16.40;75.91;100827.22;4993540;28;45402;-70
2022/06/06 02:13:37;;;;;;;;;10.00;8.75;;;;;16.39;75.49;100831.69;4994554;28;45372;-71
2022/06/06 02:16:02;;;;;;;;;8.75;7.50;;;;;16.35;74.73;100838.13;4994964;28;45272;-70
2022/06/06 02:18:28;;;;;;;;;7.25;7.25;;;;;16.30;75.04;100822.47;4994702;27;45459;-69
2022/06/06 02:20:55;;;;;;;;;6.00;6.00;;;;;16.26;74.79;100828.91;4994110;27;45494;-70
2022/06/06 02:23:21;;;;;;;;;7.00;6.00;;;;;16.22;74.91;100827.38;4994130;27;45759;-70
2022/06/06 02:25:47;;;;;;;;;3.00;3.00;;;;;16.18;74.67;100825.88;4995789;28;45201;-70
2022/06/06 02:28:12;;;;;;;;;7.00;7.00;;;;;16.10;74.70;100818.38;4999164;27;45263;-70
2022/06/06 02:30:38;;;;;;;;;8.50;6.50;;;;;16.07;74.90;100823.88;4994557;27;45305;-70
2022/06/06 02:33:04;;;;;;;;;6.50;6.50;;;;;16.03;75.03;100825.84;4993263;28;45977;-69
2022/06/06 02:35:36;;;;;;;;;7.00;7.00;;;;;15.97;75.28;100822.72;4994166;27;45223;-71
2022/06/06 02:38:03;;;;;;;;;7.25;7.25;;;;;15.96;75.61;100821.00;4992788;27;45380;-70
2022/06/06 02:40:30;;;;;;;;;6.75;6.75;;;;;15.91;75.79;100821.25;4996316;28;45589;-71
2022/06/06 02:42:56;;;;;;;;;8.50;8.50;;;;;15.91;75.56;100827.44;4996033;27;46205;-71
2022/06/06 02:45:21;;;;;;;;;7.00;7.00;;;;;15.87;76.15;100820.56;4994559;28;45359;-69
2022/06/06 02:47:50;;;;;;;;;6.00;6.00;;;;;15.87;76.22;100827.66;4995714;28;45352;-70
2022/06/06 02:50:19;;;;;;;;;8.25;7.00;;;;;15.82;75.84;100822.59;4994110;27;45529;-70
2022/06/06 02:52:44;;;;;;;;;7.00;7.00;;;;;15.79;75.84;100822.78;4995014;28;45226;-71
2022/06/06 02:55:12;;;;;;;;;7.00;4.00;;;;;15.74;74.88;100819.53;4994943;28;45473;-70
2022/06/06 02:57:39;;;;;;;;;6.00;6.00;;;;;15.67;75.04;100827.03;4994672;28;45376;-69
2022/06/06 03:00:08;;;;;;;;;7.00;7.00;;;;;15.57;75.04;100816.06;4996194;28;45597;-71
2022/06/06 03:02:35;;;;;;;;;3.00;3.00;;;;;15.51;74.94;100821.72;4995655;28;47567;-71
2022/06/06 03:05:01;;;;;;;;;5.00;5.00;;;;;15.45;75.27;100822.09;4994722;27;45479;-71
2022/06/06 03:07:29;;;;;;;;;5.00;5.00;;;;;15.39;74.49;100818.00;4995071;28;45432;-70
2022/06/06 03:10:20;;;;;;;;;5.75;5.75;;;;;15.33;75.03;100826.28;4994956;27;45637;-71
2022/06/06 03:12:53;;;;;;;;;6.75;5.00;;;;;15.28;75.19;100823.91;4995340;28;45380;-72
2022/06/06 03:15:37;;;;;;;;;8.00;7.25;;;;;15.24;74.40;100825.00;4995326;28;45183;-70
2022/06/06 03:21:25;;;;;;;;;6.50;5.25;;;;;15.14;74.66;100829.97;4995501;28;45219;-70
2022/06/06 03:24:02;;;;;;;;;7.00;7.00;;;;;15.15;75.00;100830.81;4994059;28;45331;-70
2022/06/06 03:26:49;;;;;;;;;7.75;7.75;;;;;15.13;74.66;100832.72;4994320;28;45469;-71
2022/06/06 03:29:33;;;;;;;;;8.50;7.00;;;;;15.08;73.93;100834.75;4994666;28;45445;-69
2022/06/06 03:32:23;;;;;;;;;5.00;5.00;;;;;15.07;74.04;100839.19;4992689;28;45394;-71
2022/06/06 03:35:07;;;;;;;;;6.00;6.00;;;;;15.06;74.05;100837.47;4992830;28;46410;-72
2022/06/06 03:38:03;;;;;;;;;5.50;4.00;;;;;15.07;74.42;100841.84;4992058;28;45757;-71
2022/06/06 03:40:58;;;;;;;;;5.75;5.50;;;;;15.07;74.28;100841.84;5004768;28;45380;-71
2022/06/06 03:43:39;;;;;;;;;9.25;6.25;;;;;15.06;73.69;100839.28;4993710;28;45288;-69
2022/06/06 03:46:21;;;;;;;;;4.00;4.00;;;;;15.03;73.90;100838.50;4992858;28;46412;-71
2022/06/06 03:49:08;;;;;;;;;3.50;3.00;;;;;15.02;73.65;100839.44;4993335;28;45318;-69
2022/06/06 03:52:14;;;;;;;;;3.50;3.50;;;;;15.01;73.71;100837.75;4993661;27;45211;-71
2022/06/06 03:55:06;;;;;;;;;4.50;3.00;;;;;15.03;73.06;100838.50;4994123;28;45213;-71
2022/06/06 03:57:34;;;;;;;;;3.00;3.00;;;;;15.06;73.44;100836.63;4993741;28;46404;-69
2022/06/06 04:00:06;;;;;;;;;3.00;2.00;;;;;15.07;73.32;100838.34;4993793;28;45377;-71
2022/06/06 04:02:35;;;;;;;;;4.00;3.75;;;;;15.11;72.79;100847.84;4993743;28;45381;-70
2022/06/06 04:05:05;;;;;;;;;3.75;3.75;;;;;15.15;72.87;100844.06;4993324;27;45346;-72
2022/06/06 04:07:33;;;;;;;;;3.00;3.00;;;;;15.23;72.98;100844.50;4991153;28;46258;-71
2022/06/06 04:09:59;;;;;;;;;5.50;4.00;;;;;15.28;72.74;100850.41;4993289;28;45398;-72
2022/06/06 04:12:41;;;;;;;;;4.00;4.00;;;;;15.33;72.64;100853.66;4994120;27;45334;-71
2022/06/06 04:15:39;;;;;;;;;4.50;4.50;;;;;15.39;72.20;100857.75;4996685;27;45569;-72
2022/06/06 04:18:10;;;;;;;;;4.25;4.25;;;;;15.44;72.11;100853.06;4993955;28;46762;-72
2022/06/06 04:20:38;;;;;;;;;3.00;3.00;;;;;15.50;72.03;100854.50;4995140;28;45276;-68
2022/06/06 04:23:28;;;;;;;;;3.00;3.00;;;;;15.57;71.77;100861.16;4994663;28;46156;-70
2022/06/06 04:26:11;;;;;;;;;4.00;2.75;;;;;15.61;71.43;100856.53;4993456;28;45274;-71
2022/06/06 04:28:38;;;;;;;;;4.00;2.50;;;;;15.65;71.10;100870.47;4994949;28;45365;-71
2022/06/06 04:31:31;;;;;;;;;4.00;4.00;;;;;15.69;71.12;100862.25;4995666;28;45303;-73
2022/06/06 04:34:09;;;;;;;;;3.00;3.00;;;;;15.72;71.04;100864.75;4994502;28;45306;-71
2022/06/06 04:36:50;;;;;;;;;5.25;4.00;;;;;15.79;71.22;100859.91;4993631;28;45422;-72
2022/06/06 04:39:30;;;;;;;;;4.25;4.00;;;;;15.84;70.95;100862.31;4993300;28;46445;-71
2022/06/06 04:42:28;;;;;;;;;4.00;4.00;;;;;15.88;71.00;100862.06;4994670;28;45350;-70
2022/06/06 04:45:16;;;;;;;;;3.00;3.00;;;;;15.90;71.14;100852.25;4992964;28;45253;-70
2022/06/06 04:47:42;;;;;;;;;5.75;4.00;;;;;15.92;70.86;100849.50;4993618;28;45336;-70
2022/06/06 04:50:19;;;;;;;;;4.00;4.00;;;;;15.96;70.76;100855.50;4993719;28;47017;-71
2022/06/06 04:52:48;;;;;;;;;5.50;4.00;;;;;15.99;70.89;100856.16;4993650;28;45478;-70
2022/06/06 04:55:15;;;;;;;;;3.75;3.75;;;;;16.01;71.04;100858.72;4992489;28;45282;-70
2022/06/06 04:57:49;;;;;;;;;4.00;4.00;;;;;16.08;70.75;100857.41;4995454;27;45271;-70
2022/06/06 05:00:15;;;;;;;;;4.00;4.00;;;;;16.03;70.47;100840.91;4994521;28;45343;-70
2022/06/06 05:02:42;;;;;;;;;3.25;3.00;;;;;16.09;70.83;100848.50;4993497;27;45576;-70
2022/06/06 05:05:09;;;;;;;;;6.75;6.75;;;;;16.09;70.81;100855.59;4994030;28;45386;-69
2022/06/06 05:08:05;;;;;;;;;3.00;3.00;;;;;16.05;70.80;100852.28;4993749;28;45324;-71
2022/06/06 05:10:39;;;;;;;;;4.50;4.50;;;;;16.05;70.39;100849.63;4942358;27;48455;-69
2022/06/06 05:13:31;;;;;;;;;4.00;4.00;;;;;16.13;70.52;100860.66;4992806;28;45279;-72
2022/06/06 05:16:28;;;;;;;;;3.25;3.25;;;;;16.40;69.55;100861.72;4998517;28;45481;-73
2022/06/06 05:19:24;;;;;;;;;4.50;3.00;;;;;16.59;68.93;100867.66;4981889;28;45361;-70
2022/06/06 05:21:59;;;;;;;;;3.00;3.00;;;;;16.71;68.62;100868.69;4995034;28;47454;-71
2022/06/06 05:24:36;;;;;;;;;3.00;3.00;;;;;16.71;68.39;100863.38;4996467;28;45388;-72
2022/06/06 05:27:20;;;;;;;;;4.00;4.00;;;;;16.61;68.14;100862.22;4995652;27;45216;-72
2022/06/06 05:30:01;;;;;;;;;2.50;1.00;;;;;16.61;67.83;100870.19;4995509;28;45385;-71
2022/06/06 05:32:49;;;;;;;;;2.75;2.75;;;;;16.61;68.02;100864.88;4995003;28;45355;-71
2022/06/06 05:35:40;;;;;;;;;2.00;2.00;;;;;16.76;67.33;100866.59;4994915;27;45474;-71
2022/06/06 05:38:33;;;;;;;;;2.50;2.50;;;;;16.96;66.83;100864.50;4994464;28;45379;-71
2022/06/06 05:41:33;;;;;;;;;2.00;2.00;;;;;17.15;66.29;100874.88;4995304;28;45309;-71
2022/06/06 05:44:07;;;;;;;;;1.25;1.25;;;;;17.29;65.81;100879.31;4996203;28;46466;-71
2022/06/06 05:46:51;;;;;;;;;2.00;2.00;;;;;17.40;65.10;100864.47;4995235;28;45352;-71
2022/06/06 05:49:54;;;;;;;;;1.00;1.00;;;;;17.46;64.71;100864.09;4993354;28;45275;-71
2022/06/06 05:52:44;;;;;;;;;2.00;2.00;;;;;17.49;64.29;100874.53;4994301;28;45568;-71
2022/06/06 05:55:22;;;;;;;;;4.50;2.00;;;;;17.45;64.78;100862.38;4994398;28;45270;-72
2022/06/06 05:58:03;;;;;;;;;3.75;3.50;;;;;17.42;64.60;100875.88;4994408;28;45205;-72
2022/06/06 06:00:31;;;;;;;;;2.75;2.75;;;;;17.34;65.34;100879.88;4994524;28;45274;-73
2022/06/06 06:03:35;;;;;;;;;2.00;2.00;;;;;17.23;65.25;100875.22;4992881;28;45532;-71
2022/06/06 06:06:19;;;;;;;;;3.00;3.00;;;;;17.05;65.52;100881.72;4993657;27;46628;-73
2022/06/06 06:08:55;;;;;;;;;2.00;2.00;;;;;16.92;65.84;100887.78;4994112;27;45393;-71
2022/06/06 06:11:36;;;;;;;;;2.00;2.00;;;;;16.79;66.69;100890.31;4994551;28;45372;-71
2022/06/06 06:14:22;;;;;;;;;1.75;1.75;;;;;16.52;66.70;100865.44;5000609;28;45629;-72
2022/06/06 06:16:52;;;;;;;;;2.00;2.00;;;;;16.55;66.91;100883.84;4996528;28;45378;-73
2022/06/06 06:19:24;;;;;;;;;2.00;2.00;;;;;16.47;67.45;100881.69;4999578;28;45235;-72
2022/06/06 06:21:55;;;;;;;;;1.50;1.50;;;;;16.43;67.70;100880.13;4995423;28;45349;-72
2022/06/06 06:24:27;;;;;;;;;2.25;2.25;;;;;16.43;68.41;100894.28;4995515;28;45465;-72
2022/06/06 06:26:55;;;;;;;;;2.50;2.25;;;;;16.43;68.28;100899.59;4998533;28;46146;-72
2022/06/06 06:29:20;;;;;;;;;1.75;1.75;;;;;16.40;68.22;100902.41;4995254;28;45498;-69
2022/06/06 06:32:01;;;;;;;;;2.00;2.00;;;;;16.37;67.98;100910.56;4992451;27;45380;-72
2022/06/06 06:34:40;;;;;;;;;2.00;2.00;;;;;16.33;68.23;100899.25;4993702;28;45445;-71
2022/06/06 06:37:15;;;;;;;;;2.00;2.00;;;;;16.38;68.38;100908.75;4993252;28;46293;-72
2022/06/06 06:39:59;;;;;;;;;2.00;2.00;;;;;16.37;68.58;100907.91;4993004;28;45503;-71
2022/06/06 06:42:46;;;;;;;;;4.00;4.00;;;;;16.40;68.41;100910.38;4992187;27;45368;-72
2022/06/06 06:45:19;;;;;;;;;2.75;2.75;;;;;16.41;68.45;100914.75;4993791;28;45365;-70
2022/06/06 06:47:57;;;;;;;;;4.00;3.00;;;;;16.49;68.76;100911.66;4994348;28;45283;-74
2022/06/06 06:50:31;;;;;;;;;3.75;3.75;;;;;16.54;68.34;100914.88;4994083;28;45320;-72
2022/06/06 06:53:17;;;;;;;;;7.00;3.00;;;;;16.59;67.94;100910.16;4994253;28;45382;-71
2022/06/06 06:55:50;;;;;;;;;2.75;2.75;;;;;16.62;67.87;100898.47;4996110;28;45436;-72
2022/06/06 06:58:34;;;;;;;;;2.00;2.00;;;;;16.70;67.68;100914.78;5000226;28;45426;-71
2022/06/06 07:01:12;;;;;;;;;2.75;1.50;;;;;16.72;67.57;100914.72;5000954;28;45196;-71
2022/06/06 07:10:24;;;;;;;;;2.00;2.00;;;;;16.89;67.28;100916.31;4994397;28;45365;-70
2022/06/06 07:13:25;;;;;;;;;3.00;3.00;;;;;17.00;67.28;100921.00;4993882;28;45132;-70
2022/06/06 07:16:14;;;;;;;;;5.00;3.00;;;;;17.12;66.77;100919.41;4993397;28;45353;-70
2022/06/06 07:18:42;;;;;;;;;4.00;4.00;;;;;17.23;66.58;100914.28;4993542;28;45188;-71
2022/06/06 07:21:10;;;;;;;;;2.00;2.00;;;;;17.36;65.92;100912.53;4992832;28;45495;-70
2022/06/06 07:23:39;;;;;;;;;3.00;3.00;;;;;17.47;65.50;100913.66;4991034;27;45510;-69
2022/06/06 07:26:07;;;;;;;;;2.50;2.50;;;;;17.64;65.19;100910.75;4992799;27;45224;-71
2022/06/06 07:28:32;;;;;;;;;2.00;2.00;;;;;17.79;64.68;100916.03;4991875;28;45515;-70
2022/06/06 07:31:20;;;;;;;;;2.00;2.00;;;;;17.88;64.41;100906.59;4993345;27;45392;-71
2022/06/06 07:34:17;;;;;;;;;2.25;1.75;;;;;18.03;64.08;100910.94;4993976;27;45307;-70
2022/06/06 07:36:54;;;;;;;;;2.50;2.25;;;;;18.14;63.74;100914.69;4994156;27;45335;-70
2022/06/06 07:39:34;;;;;;;;;2.00;2.00;;;;;18.15;63.24;100914.59;4994550;28;45363;-70
2022/06/06 07:42:42;;;;;;;;;1.00;1.00;;;;;18.16;62.59;100910.13;4992246;28;47062;-70
2022/06/06 07:45:35;;;;;;;;;2.00;2.00;;;;;18.34;62.64;100908.03;4994691;28;45361;-71
2022/06/06 07:48:13;;;;;;;;;2.00;2.00;;;;;18.42;62.32;100902.16;4993134;27;45436;-71
2022/06/06 07:50:50;;;;;;;;;4.00;2.25;;;;;18.62;62.37;100903.47;4995279;28;45215;-69
2022/06/06 07:53:25;;;;;;;;;1.00;1.00;;;;;18.82;60.93;100902.09;4997244;28;46065;-71
2022/06/06 07:56:19;;;;;;;;;1.25;1.25;;;;;18.89;60.98;100905.16;4997288;28;45120;-72
2022/06/06 07:58:56;;;;;;;;;2.00;2.00;;;;;18.95;59.92;100907.41;4986705;27;45464;-70
2022/06/06 08:01:46;;;;;;;;;1.50;1.50;;;;;18.94;59.92;100905.69;4994049;28;45489;-71
2022/06/06 08:04:26;;;;;;;;;1.00;1.00;;;;;18.93;59.70;100894.19;4992790;28;45343;-70
2022/06/06 08:07:19;;;;;;;;;2.25;2.00;;;;;18.92;58.49;100896.94;4992802;28;45349;-69
2022/06/06 08:10:08;;;;;;;;;2.00;2.00;;;;;18.88;59.32;100903.47;4992570;28;45375;-75
2022/06/06 08:12:45;;;;;;;;;1.00;1.00;;;;;18.82;58.62;100892.28;4993570;28;45416;-72
2022/06/06 08:15:36;;;;;;;;;2.25;2.25;;;;;18.79;58.97;100895.16;4992869;28;45363;-72
2022/06/06 08:18:36;;;;;;;;;1.50;1.50;;;;;18.95;58.45;100892.28;4991517;28;45474;-72
2022/06/06 08:21:08;;;;;;;;;2.00;2.00;;;;;19.14;58.57;100898.16;4992521;28;45211;-72
2022/06/06 08:23:37;;;;;;;;;3.75;2.00;;;;;19.26;58.51;100887.44;4992419;27;45562;-73
2022/06/06 08:26:03;;;;;;;;;2.00;2.00;;;;;19.26;57.41;100891.94;4991073;27;46118;-70
2022/06/06 08:28:31;;;;;;;;;3.50;1.75;;;;;19.18;57.86;100886.31;4992350;28;45285;-69
2022/06/06 08:30:57;;;;;;;;;1.25;1.25;;;;;19.08;57.84;100892.25;4992026;27;45298;-71
2022/06/06 08:33:23;;;;;;;;;1.00;1.00;;;;;19.03;57.63;100881.06;4993243;28;45239;-71
2022/06/06 08:35:51;;;;;;;;;0.00;0.00;;;;;19.11;57.24;100885.88;4992043;27;46291;-71
2022/06/06 08:38:46;;;;;;;;;1.00;1.00;;;;;19.15;56.73;100889.19;4993849;28;45238;-71
2022/06/06 08:41:17;;;;;;;;;1.00;1.00;;;;;19.22;56.36;100890.44;4992127;28;45268;-71
2022/06/06 08:44:12;;;;;;;;;0.50;0.50;;;;;19.26;56.90;100886.59;4992162;28;45458;-72
2022/06/06 08:47:02;;;;;;;;;0.75;0.75;;;;;19.35;57.30;100877.94;4969522;28;47088;-70
2022/06/06 08:52:39;;;;;;;;;1.25;1.25;;;;;19.85;54.96;100880.50;4991772;28;45354;-72
2022/06/06 08:55:07;;;;;;;;;2.75;2.75;;;;;19.93;55.33;100874.59;4990687;28;45474;-71
2022/06/06 08:58:03;;;;;;;;;1.75;0.50;;;;;20.03;55.28;100874.75;4992451;28;45460;-70
2022/06/06 09:00:31;;;;;;;;;0.00;0.00;;;;;20.29;54.28;100878.13;4992522;28;45287;-70
2022/06/06 09:03:50;;;;;;;;;0.00;0.00;;;;;20.40;52.30;100869.28;4994024;28;45420;-70
2022/06/06 09:06:51;;;;;;;;;1.50;1.50;;;;;20.38;53.62;100873.03;4931286;28;45596;-72
2022/06/06 09:09:36;;;;;;;;;3.00;1.00;;;;;20.40;53.45;100869.28;5019077;28;48124;-71
2022/06/06 09:12:10;;;;;;;;;8.75;8.75;;;;;20.38;53.39;100876.56;4992007;28;45395;-72
2022/06/06 09:15:06;;;;;;;;;5.00;5.00;;;;;20.60;54.05;100880.22;4992172;28;45280;-72
2022/06/06 09:17:31;;;;;;;;;7.00;4.25;;;;;20.91;53.84;100871.66;4992342;28;45693;-75
2022/06/06 09:20:10;;;;;;;;;5.00;3.25;;;;;21.22;52.19;100882.59;4992014;28;45416;-73
2022/06/06 09:22:42;;;;;;;;;1.25;1.25;;;;;21.51;50.86;100882.03;4993043;28;45291;-72
2022/06/06 09:25:52;;;;;;;;;3.00;1.00;;;;;21.62;50.37;100879.31;4992088;28;45263;-72
2022/06/06 09:28:17;;;;;;;;;2.50;1.00;;;;;21.73;50.39;100879.31;4991457;28;45250;-70
2022/06/06 09:30:48;;;;;;;;;2.00;2.00;;;;;21.87;50.00;100880.00;4990909;27;47219;-70
2022/06/06 09:33:48;;;;;;;;;0.25;0.25;;;;;21.85;48.87;100887.31;4991276;28;45495;-72
2022/06/06 09:36:38;;;;;;;;;0.00;0.00;;;;;21.63;48.23;100875.69;4991610;27;45447;-72
2022/06/06 09:39:31;;;;;;;;;1.00;0.00;;;;;21.39;48.70;100874.03;4991253;27;45700;-72
2022/06/06 09:42:21;;;;;;;;;1.25;1.25;;;;;21.21;49.37;100878.22;4991733;28;45462;-72
2022/06/06 09:45:10;;;;;;;;;1.50;1.50;;;;;21.19;49.78;100877.44;4991855;28;45457;-70
2022/06/06 09:48:13;;;;;;;;;3.00;3.00;;;;;21.24;50.00;100876.13;4992455;28;45448;-70
2022/06/06 09:50:41;;;;;;;;;1.00;1.00;;;;;21.47;50.35;100872.56;4990866;28;45144;-71
2022/06/06 09:53:28;;;;;;;;;4.75;1.75;;;;;21.70;49.21;100873.34;4990818;28;46208;-72
2022/06/06 09:59:55;;;;;;;;;2.25;2.25;;;;;22.09;48.31;100867.47;4969092;28;45390;-72
2022/06/06 10:02:29;;;;;;;;;5.25;3.75;;;;;22.14;47.68;100873.28;4965865;28;45604;-71
2022/06/06 10:04:57;;;;;;;;;1.25;1.25;;;;;22.14;47.41;100870.59;4992838;28;46162;-71
2022/06/06 10:07:32;;;;;;;;;3.75;3.75;;;;;22.13;47.50;100880.47;4994887;28;45331;-71
2022/06/06 10:10:16;;;;;;;;;3.50;3.50;;;;;22.21;46.47;100871.78;4994806;28;45314;-72
2022/06/06 10:13:06;;;;;;;;;0.75;0.75;;;;;22.15;46.09;100869.63;4995970;28;45464;-72
2022/06/06 10:15:46;;;;;;;;;0.50;0.00;;;;;22.03;46.05;100877.72;4995003;28;46377;-73
2022/06/06 10:18:25;;;;;;;;;1.00;0.25;;;;;22.17;46.69;100875.69;4995099;28;45580;-72
2022/06/06 10:20:59;;;;;;;;;1.00;1.00;;;;;22.44;46.44;100874.34;4994625;28;45313;-72
2022/06/06 10:23:36;;;;;;;;;0.00;0.00;;;;;22.73;44.95;100870.97;4995063;28;45560;-72
2022/06/06 10:26:20;;;;;;;;;0.25;0.00;;;;;22.81;44.83;100873.00;4994000;28;46108;-72
2022/06/06 10:29:02;;;;;;;;;1.00;1.00;;;;;22.78;44.58;100868.75;4994231;28;45451;-72
2022/06/06 10:31:52;;;;;;;;;2.50;1.00;;;;;22.80;45.09;100876.63;4994696;28;45560;-71
2022/06/06 10:34:39;;;;;;;;;5.25;5.25;;;;;22.79;45.89;100875.81;4993810;27;45535;-72
2022/06/06 10:37:07;;;;;;;;;1.00;1.00;;;;;;;;4993676;28;45387;-71
2022/06/06 10:39:57;;;;;;;;;1.00;1.00;;;;;22.75;45.02;100880.56;4994496;27;45864;-71
2022/06/06 10:42:25;;;;;;;;;1.25;1.25;;;;;22.70;44.84;100877.44;4994250;28;45271;-72
2022/06/06 10:44:59;;;;;;;;;3.00;1.25;;;;;22.87;44.21;100884.03;4995024;28;45487;-71
2022/06/06 10:47:47;;;;;;;;;2.00;0.75;;;;;22.98;43.46;100882.22;4993691;27;46326;-70
2022/06/06 10:50:19;;;;;;;;;0.00;0.00;;;;;22.93;43.98;100876.44;4995286;28;45423;-70
2022/06/06 10:53:19;;;;;;;;;1.00;1.00;;;;;23.01;44.27;100874.78;4993430;27;45337;-71
2022/06/06 10:56:07;;;;;;;;;4.00;2.00;;;;;23.33;43.37;100870.25;4992155;28;45490;-72
2022/06/06 10:58:59;;;;;;;;;0.00;0.00;;;;;23.54;43.24;100869.28;4994026;28;45497;-72
2022/06/06 11:01:47;;;;;;;;;0.00;0.00;;;;;23.51;42.19;100867.72;4994327;28;45422;-72
2022/06/06 11:04:27;;;;;;;;;3.50;2.00;;;;;23.46;42.56;100868.13;4994592;28;45349;-71
2022/06/06 11:06:55;;;;;;;;;7.25;6.00;;;;;23.55;42.41;100866.44;4995023;28;45417;-71
2022/06/06 11:09:56;;;;;;;;;4.00;2.00;;;;;23.62;42.73;100858.69;4995722;28;45412;-74
2022/06/06 11:13:12;;;;;;;;;0.00;0.00;;;;;23.63;42.54;100857.69;4995243;28;45436;-71
2022/06/06 11:15:42;;;;;;;;;1.25;1.25;;;;;23.57;43.00;100861.78;4994852;28;45428;-71
2022/06/06 11:18:42;;;;;;;;;0.00;0.00;;;;;23.70;42.84;100863.34;4992928;28;45248;-71
2022/06/06 11:21:35;;;;;;;;;1.00;1.00;;;;;23.90;43.15;100856.13;4993477;28;47046;-72
2022/06/06 11:24:14;;;;;;;;;2.00;2.00;;;;;24.10;41.48;100866.88;4993521;28;45168;-70
2022/06/06 11:26:57;;;;;;;;;1.00;1.00;;;;;23.92;41.27;100862.22;4993132;28;45351;-71
2022/06/06 11:29:49;;;;;;;;;1.00;1.00;;;;;23.88;41.98;100855.44;4993305;28;45396;-72
2022/06/06 11:32:41;;;;;;;;;3.50;1.00;;;;;23.80;40.73;100858.81;4992832;28;45397;-72
2022/06/06 11:35:26;;;;;;;;;2.75;1.00;;;;;23.68;41.15;100855.44;4993547;27;45257;-73
2022/06/06 11:38:11;;;;;;;;;2.50;2.50;;;;;23.50;41.49;100866.00;4994271;27;45335;-72
2022/06/06 11:41:19;;;;;;;;;3.00;3.00;;;;;23.27;42.37;100854.66;4995087;27;45536;-72
2022/06/06 11:44:02;;;;;;;;;0.00;0.00;;;;;23.18;41.27;100853.63;4994362;28;46396;-72
2022/06/06 11:46:45;;;;;;;;;1.75;1.75;;;;;23.05;41.71;100851.19;4994309;28;45264;-70
2022/06/06 11:49:23;;;;;;;;;0.50;0.50;;;;;23.01;41.89;100849.75;4993608;28;45429;-71
2022/06/06 11:52:14;;;;;;;;;3.50;1.75;;;;;23.03;42.48;100856.72;4991983;28;45532;-71
2022/06/06 11:55:04;;;;;;;;;0.00;0.00;;;;;22.94;42.23;100868.25;4959483;28;46555;-70
2022/06/06 11:57:48;;;;;;;;;2.00;2.00;;;;;22.85;42.61;100863.72;4993416;28;45401;-73
2022/06/06 12:00:21;;;;;;;;;4.00;4.00;;;;;22.75;42.39;100861.81;4992253;27;45342;-71
2022/06/06 12:03:14;;;;;;;;;1.75;0.00;;;;;22.73;42.76;100854.91;4991874;28;45546;-70
2022/06/06 12:06:13;;;;;;;;;1.00;1.00;;;;;22.79;42.70;100857.03;4993305;28;46082;-71
2022/06/06 12:09:13;;;;;;;;;0.00;0.00;;;;;22.78;41.86;100863.38;4993455;28;45339;-71
2022/06/06 12:11:50;;;;;;;;;0.50;0.50;;;;;22.92;42.59;100854.13;4994043;27;45315;-71
2022/06/06 12:14:24;;;;;;;;;1.00;1.00;;;;;22.98;42.20;100848.22;4995083;28;45456;-72
2022/06/06 12:17:14;;;;;;;;;1.00;1.00;;;;;23.07;41.75;100846.53;4993551;28;45499;-72
2022/06/06 12:19:58;;;;;;;;;2.00;2.00;;;;;23.18;41.84;100845.59;4995462;28;45269;-71
2022/06/06 12:22:36;;;;;;;;;1.00;1.00;;;;;23.27;41.70;100852.84;4993054;28;45356;-71
2022/06/06 12:25:32;;;;;;;;;3.25;2.50;;;;;23.40;41.57;100846.34;4993572;28;45469;-71
2022/06/06 12:28:16;;;;;;;;;0.75;0.75;;;;;23.40;41.02;100849.91;4992002;27;45516;-70
2022/06/06 12:30:56;;;;;;;;;2.00;0.75;;;;;23.44;41.26;100851.31;4992151;28;45343;-71
2022/06/06 12:33:31;;;;;;;;;1.75;1.75;;;;;23.43;41.49;100809.38;4991741;28;45277;-71
2022/06/06 12:36:04;;;;;;;;;1.50;1.50;;;;;23.68;41.56;100827.72;4993594;28;45169;-71
2022/06/06 12:38:42;;;;;;;;;1.00;1.00;;;;;23.73;40.12;100825.44;4993227;28;46241;-72
2022/06/06 12:41:14;;;;;;;;;0.25;0.25;;;;;23.78;39.79;100825.88;4994232;28;45231;-70